sensor_id;sensor_type;location;lat;lon;timestamp;P1;durP1;ratioP1;P2;durP2;ratioP2
7330;SDS011;3706;49.198;7.064;2023-05-15T00:01:35;4.20;;;3.33;;
7330;SDS011;3706;49.198;7.064;2023-05-15T00:04:02;4.20;;;3.10;;
7330;SDS011;3706;49.198;7.064;2023-05-15T00:06:31;3.53;;;3.10;;
7330;SDS011;3706;49.198;7.064;2023-05-15T00:08:58;5.23;;;3.00;;
7330;SDS011;3706;49.198;7.064;2023-05-15T00:11:25;3.43;;;2.97;;
7330;SDS011;3706;49.198;7.064;2023-05-15T00:13:52;3.80;;;3.30;;
7330;SDS011;3706;49.198;7.064;2023-05-15T00:16:19;5.03;;;4.13;;
7330;SDS011;3706;49.198;7.064;2023-05-15T00:18:46;7.43;;;4.40;;
7330;SDS011;3706;49.198;7.064;2023-05-15T00:21:13;7.90;;;3.70;;
7330;SDS011;3706;49.198;7.064;2023-05-15T00:23:42;4.07;;;3.70;;
7330;SDS011;3706;49.198;7.064;2023-05-15T00:26:11;7.60;;;3.50;;
7330;SDS011;3706;49.198;7.064;2023-05-15T00:28:39;5.87;;;3.93;;
7330;SDS011;3706;49.198;7.064;2023-05-15T00:31:06;6.07;;;4.00;;
7330;SDS011;3706;49.198;7.064;2023-05-15T00:33:33;5.03;;;3.87;;
7330;SDS011;3706;49.198;7.064;2023-05-15T00:36:00;3.73;;;3.43;;
7330;SDS011;3706;49.198;7.064;2023-05-15T00:38:27;5.03;;;3.83;;
7330;SDS011;3706;49.198;7.064;2023-05-15T00:40:56;7.87;;;4.00;;
7330;SDS011;3706;49.198;7.064;2023-05-15T00:43:23;8.10;;;3.83;;
7330;SDS011;3706;49.198;7.064;2023-05-15T00:45:51;9.50;;;3.90;;
7330;SDS011;3706;49.198;7.064;2023-05-15T00:48:19;6.17;;;3.63;;
7330;SDS011;3706;49.198;7.064;2023-05-15T00:50:47;5.20;;;4.00;;
7330;SDS011;3706;49.198;7.064;2023-05-15T00:53:16;5.90;;;4.20;;
7330;SDS011;3706;49.198;7.064;2023-05-15T00:55:44;4.50;;;3.77;;
7330;SDS011;3706;49.198;7.064;2023-05-15T00:58:13;5.43;;;4.00;;
7330;SDS011;3706;49.198;7.064;2023-05-15T01:00:41;4.93;;;3.83;;
7330;SDS011;3706;49.198;7.064;2023-05-15T01:03:08;9.40;;;3.93;;
7330;SDS011;3706;49.198;7.064;2023-05-15T01:05:35;8.63;;;4.47;;
7330;SDS011;3706;49.198;7.064;2023-05-15T01:08:06;7.73;;;4.33;;
7330;SDS011;3706;49.198;7.064;2023-05-15T01:10:38;6.33;;;3.90;;
7330;SDS011;3706;49.198;7.064;2023-05-15T01:13:06;6.90;;;4.87;;
7330;SDS011;3706;49.198;7.064;2023-05-15T01:15:35;6.27;;;3.97;;
7330;SDS011;3706;49.198;7.064;2023-05-15T01:18:03;7.17;;;3.87;;
7330;SDS011;3706;49.198;7.064;2023-05-15T01:20:31;4.00;;;3.57;;
7330;SDS011;3706;49.198;7.064;2023-05-15T01:23:08;6.07;;;4.20;;
7330;SDS011;3706;49.198;7.064;2023-05-15T01:28:44;5.67;;;4.53;;
7330;SDS011;3706;49.198;7.064;2023-05-15T01:31:15;6.57;;;4.37;;
7330;SDS011;3706;49.198;7.064;2023-05-15T01:33:45;4.93;;;4.53;;
7330;SDS011;3706;49.198;7.064;2023-05-15T01:36:20;4.50;;;3.80;;
7330;SDS011;3706;49.198;7.064;2023-05-15T01:38:52;4.50;;;4.10;;
7330;SDS011;3706;49.198;7.064;2023-05-15T01:41:23;5.17;;;4.40;;
7330;SDS011;3706;49.198;7.064;2023-05-15T01:43:56;5.13;;;4.63;;
7330;SDS011;3706;49.198;7.064;2023-05-15T01:46:28;4.57;;;4.13;;
7330;SDS011;3706;49.198;7.064;2023-05-15T01:48:57;6.60;;;4.40;;
7330;SDS011;3706;49.198;7.064;2023-05-15T01:51:25;4.57;;;4.13;;
7330;SDS011;3706;49.198;7.064;2023-05-15T01:53:53;6.10;;;4.10;;
7330;SDS011;3706;49.198;7.064;2023-05-15T01:56:23;4.97;;;4.47;;
7330;SDS011;3706;49.198;7.064;2023-05-15T01:58:52;5.13;;;4.63;;
7330;SDS011;3706;49.198;7.064;2023-05-15T02:01:21;6.23;;;4.37;;
7330;SDS011;3706;49.198;7.064;2023-05-15T02:03:49;6.87;;;4.50;;
7330;SDS011;3706;49.198;7.064;2023-05-15T02:06:16;5.07;;;4.57;;
7330;SDS011;3706;49.198;7.064;2023-05-15T02:08:44;4.80;;;4.30;;
7330;SDS011;3706;49.198;7.064;2023-05-15T02:11:13;5.03;;;4.53;;
7330;SDS011;3706;49.198;7.064;2023-05-15T02:13:40;6.47;;;4.13;;
7330;SDS011;3706;49.198;7.064;2023-05-15T02:16:08;5.33;;;4.30;;
7330;SDS011;3706;49.198;7.064;2023-05-15T02:18:36;5.50;;;5.00;;
7330;SDS011;3706;49.198;7.064;2023-05-15T02:21:03;6.30;;;4.80;;
7330;SDS011;3706;49.198;7.064;2023-05-15T02:23:30;5.70;;;5.13;;
7330;SDS011;3706;49.198;7.064;2023-05-15T02:26:04;5.27;;;4.77;;
7330;SDS011;3706;49.198;7.064;2023-05-15T02:28:42;8.23;;;5.47;;
7330;SDS011;3706;49.198;7.064;2023-05-15T02:31:17;5.83;;;5.23;;
7330;SDS011;3706;49.198;7.064;2023-05-15T02:33:51;5.07;;;4.60;;
7330;SDS011;3706;49.198;7.064;2023-05-15T02:36:29;7.93;;;4.53;;
7330;SDS011;3706;49.198;7.064;2023-05-15T02:38:59;7.43;;;5.30;;
7330;SDS011;3706;49.198;7.064;2023-05-15T02:41:26;6.27;;;5.63;;
7330;SDS011;3706;49.198;7.064;2023-05-15T02:43:54;5.90;;;5.17;;
7330;SDS011;3706;49.198;7.064;2023-05-15T02:46:23;5.80;;;5.03;;
7330;SDS011;3706;49.198;7.064;2023-05-15T02:48:53;6.10;;;5.50;;
7330;SDS011;3706;49.198;7.064;2023-05-15T02:51:20;5.83;;;5.23;;
7330;SDS011;3706;49.198;7.064;2023-05-15T02:53:48;5.27;;;4.77;;
7330;SDS011;3706;49.198;7.064;2023-05-15T02:56:15;5.70;;;5.03;;
7330;SDS011;3706;49.198;7.064;2023-05-15T02:58:42;5.23;;;4.73;;
7330;SDS011;3706;49.198;7.064;2023-05-15T03:01:09;5.70;;;5.20;;
7330;SDS011;3706;49.198;7.064;2023-05-15T03:03:37;6.27;;;5.63;;
7330;SDS011;3706;49.198;7.064;2023-05-15T03:06:06;7.23;;;5.33;;
7330;SDS011;3706;49.198;7.064;2023-05-15T03:08:33;5.10;;;4.57;;
7330;SDS011;3706;49.198;7.064;2023-05-15T03:11:00;9.83;;;5.40;;
7330;SDS011;3706;49.198;7.064;2023-05-15T03:13:27;6.40;;;4.87;;
7330;SDS011;3706;49.198;7.064;2023-05-15T03:15:54;7.50;;;5.20;;
7330;SDS011;3706;49.198;7.064;2023-05-15T03:18:21;6.10;;;5.47;;
7330;SDS011;3706;49.198;7.064;2023-05-15T03:20:48;6.13;;;5.53;;
7330;SDS011;3706;49.198;7.064;2023-05-15T03:23:18;6.17;;;5.53;;
7330;SDS011;3706;49.198;7.064;2023-05-15T03:25:45;7.83;;;6.00;;
7330;SDS011;3706;49.198;7.064;2023-05-15T03:28:12;5.90;;;5.23;;
7330;SDS011;3706;49.198;7.064;2023-05-15T03:30:42;5.20;;;4.53;;
7330;SDS011;3706;49.198;7.064;2023-05-15T03:33:09;6.00;;;5.40;;
7330;SDS011;3706;49.198;7.064;2023-05-15T03:35:36;6.47;;;5.23;;
7330;SDS011;3706;49.198;7.064;2023-05-15T03:38:03;5.83;;;5.23;;
7330;SDS011;3706;49.198;7.064;2023-05-15T03:40:31;5.93;;;5.10;;
7330;SDS011;3706;49.198;7.064;2023-05-15T03:42:58;6.87;;;5.73;;
7330;SDS011;3706;49.198;7.064;2023-05-15T03:45:25;8.23;;;6.10;;
7330;SDS011;3706;49.198;7.064;2023-05-15T03:47:52;6.90;;;5.43;;
7330;SDS011;3706;49.198;7.064;2023-05-15T03:50:19;5.77;;;5.23;;
7330;SDS011;3706;49.198;7.064;2023-05-15T03:52:46;10.33;;;5.73;;
7330;SDS011;3706;49.198;7.064;2023-05-15T03:55:13;5.93;;;5.33;;
7330;SDS011;3706;49.198;7.064;2023-05-15T03:57:41;9.37;;;5.67;;
7330;SDS011;3706;49.198;7.064;2023-05-15T04:00:09;6.40;;;5.80;;
7330;SDS011;3706;49.198;7.064;2023-05-15T04:02:36;6.53;;;5.57;;
7330;SDS011;3706;49.198;7.064;2023-05-15T04:05:04;5.77;;;5.27;;
7330;SDS011;3706;49.198;7.064;2023-05-15T04:07:32;7.93;;;6.23;;
7330;SDS011;3706;49.198;7.064;2023-05-15T04:10:00;6.90;;;6.20;;
7330;SDS011;3706;49.198;7.064;2023-05-15T04:12:27;6.20;;;5.60;;
7330;SDS011;3706;49.198;7.064;2023-05-15T04:14:57;6.97;;;5.77;;
7330;SDS011;3706;49.198;7.064;2023-05-15T04:17:25;6.17;;;5.57;;
7330;SDS011;3706;49.198;7.064;2023-05-15T04:19:52;6.10;;;5.50;;
7330;SDS011;3706;49.198;7.064;2023-05-15T04:22:18;6.10;;;5.50;;
7330;SDS011;3706;49.198;7.064;2023-05-15T04:24:45;6.10;;;5.50;;
7330;SDS011;3706;49.198;7.064;2023-05-15T04:27:12;8.13;;;5.70;;
7330;SDS011;3706;49.198;7.064;2023-05-15T04:29:40;7.13;;;5.03;;
7330;SDS011;3706;49.198;7.064;2023-05-15T04:32:08;6.33;;;5.73;;
7330;SDS011;3706;49.198;7.064;2023-05-15T04:34:36;6.17;;;4.87;;
7330;SDS011;3706;49.198;7.064;2023-05-15T04:37:05;5.70;;;5.07;;
7330;SDS011;3706;49.198;7.064;2023-05-15T04:39:32;7.60;;;5.07;;
7330;SDS011;3706;49.198;7.064;2023-05-15T04:41:58;6.37;;;5.40;;
7330;SDS011;3706;49.198;7.064;2023-05-15T04:44:26;7.13;;;5.33;;
7330;SDS011;3706;49.198;7.064;2023-05-15T04:46:53;5.40;;;4.90;;
7330;SDS011;3706;49.198;7.064;2023-05-15T04:49:21;6.00;;;5.03;;
7330;SDS011;3706;49.198;7.064;2023-05-15T04:51:48;5.17;;;4.63;;
7330;SDS011;3706;49.198;7.064;2023-05-15T04:54:15;5.20;;;4.60;;
7330;SDS011;3706;49.198;7.064;2023-05-15T04:56:43;5.50;;;4.20;;
7330;SDS011;3706;49.198;7.064;2023-05-15T04:59:10;6.30;;;4.90;;
7330;SDS011;3706;49.198;7.064;2023-05-15T05:01:37;4.23;;;3.83;;
7330;SDS011;3706;49.198;7.064;2023-05-15T05:04:04;4.70;;;4.27;;
7330;SDS011;3706;49.198;7.064;2023-05-15T05:06:33;3.83;;;3.53;;
7330;SDS011;3706;49.198;7.064;2023-05-15T05:09:00;3.97;;;3.57;;
7330;SDS011;3706;49.198;7.064;2023-05-15T05:11:27;4.37;;;3.97;;
7330;SDS011;3706;49.198;7.064;2023-05-15T05:13:54;4.03;;;3.73;;
7330;SDS011;3706;49.198;7.064;2023-05-15T05:16:21;4.10;;;3.50;;
7330;SDS011;3706;49.198;7.064;2023-05-15T05:18:48;8.23;;;3.50;;
7330;SDS011;3706;49.198;7.064;2023-05-15T05:21:15;6.77;;;3.57;;
7330;SDS011;3706;49.198;7.064;2023-05-15T05:23:43;4.23;;;3.80;;
7330;SDS011;3706;49.198;7.064;2023-05-15T05:26:11;4.20;;;3.30;;
7330;SDS011;3706;49.198;7.064;2023-05-15T05:28:38;3.43;;;3.13;;
7330;SDS011;3706;49.198;7.064;2023-05-15T05:31:05;7.27;;;6.33;;
7330;SDS011;3706;49.198;7.064;2023-05-15T05:33:33;9.27;;;6.70;;
7330;SDS011;3706;49.198;7.064;2023-05-15T05:36:00;5.93;;;4.63;;
7330;SDS011;3706;49.198;7.064;2023-05-15T05:38:27;5.97;;;5.33;;
7330;SDS011;3706;49.198;7.064;2023-05-15T05:40:55;8.00;;;6.43;;
7330;SDS011;3706;49.198;7.064;2023-05-15T05:43:24;8.40;;;6.73;;
7330;SDS011;3706;49.198;7.064;2023-05-15T05:45:51;5.10;;;4.60;;
7330;SDS011;3706;49.198;7.064;2023-05-15T05:48:18;6.90;;;5.07;;
7330;SDS011;3706;49.198;7.064;2023-05-15T05:50:45;8.03;;;5.47;;
7330;SDS011;3706;49.198;7.064;2023-05-15T05:53:12;7.17;;;4.30;;
7330;SDS011;3706;49.198;7.064;2023-05-15T05:55:39;7.87;;;5.03;;
7330;SDS011;3706;49.198;7.064;2023-05-15T05:58:07;4.53;;;4.07;;
7330;SDS011;3706;49.198;7.064;2023-05-15T06:00:34;4.80;;;4.40;;
7330;SDS011;3706;49.198;7.064;2023-05-15T06:03:01;4.43;;;4.03;;
7330;SDS011;3706;49.198;7.064;2023-05-15T06:05:29;5.47;;;4.83;;
7330;SDS011;3706;49.198;7.064;2023-05-15T06:07:56;6.20;;;4.70;;
7330;SDS011;3706;49.198;7.064;2023-05-15T06:10:25;5.23;;;4.57;;
7330;SDS011;3706;49.198;7.064;2023-05-15T06:12:52;5.70;;;4.57;;
7330;SDS011;3706;49.198;7.064;2023-05-15T06:15:20;6.17;;;3.90;;
7330;SDS011;3706;49.198;7.064;2023-05-15T06:17:47;5.32;;;4.45;;
7330;SDS011;3706;49.198;7.064;2023-05-15T06:20:14;4.70;;;4.18;;
7330;SDS011;3706;49.198;7.064;2023-05-15T06:22:42;6.15;;;4.15;;
7330;SDS011;3706;49.198;7.064;2023-05-15T06:25:09;4.35;;;3.95;;
7330;SDS011;3706;49.198;7.064;2023-05-15T06:27:38;4.90;;;4.30;;
7330;SDS011;3706;49.198;7.064;2023-05-15T06:30:06;6.07;;;4.40;;
7330;SDS011;3706;49.198;7.064;2023-05-15T06:32:36;5.00;;;4.28;;
7330;SDS011;3706;49.198;7.064;2023-05-15T06:35:03;5.13;;;4.57;;
7330;SDS011;3706;49.198;7.064;2023-05-15T06:37:30;5.45;;;4.25;;
7330;SDS011;3706;49.198;7.064;2023-05-15T06:39:57;4.40;;;4.00;;
7330;SDS011;3706;49.198;7.064;2023-05-15T06:42:25;6.70;;;4.88;;
7330;SDS011;3706;49.198;7.064;2023-05-15T06:44:52;6.05;;;4.15;;
7330;SDS011;3706;49.198;7.064;2023-05-15T06:47:19;5.78;;;4.60;;
7330;SDS011;3706;49.198;7.064;2023-05-15T06:49:47;6.10;;;4.40;;
7330;SDS011;3706;49.198;7.064;2023-05-15T06:52:14;4.82;;;4.30;;
7330;SDS011;3706;49.198;7.064;2023-05-15T06:54:41;4.85;;;3.90;;
7330;SDS011;3706;49.198;7.064;2023-05-15T06:57:08;5.05;;;4.55;;
7330;SDS011;3706;49.198;7.064;2023-05-15T06:59:35;5.15;;;4.68;;
7330;SDS011;3706;49.198;7.064;2023-05-15T07:02:02;5.55;;;5.03;;
7330;SDS011;3706;49.198;7.064;2023-05-15T07:04:30;6.18;;;5.07;;
7330;SDS011;3706;49.198;7.064;2023-05-15T07:06:58;5.80;;;5.13;;
7330;SDS011;3706;49.198;7.064;2023-05-15T07:09:25;5.43;;;4.80;;
7330;SDS011;3706;49.198;7.064;2023-05-15T07:11:52;4.93;;;4.53;;
7330;SDS011;3706;49.198;7.064;2023-05-15T07:14:19;5.57;;;4.05;;
7330;SDS011;3706;49.198;7.064;2023-05-15T07:16:46;5.22;;;4.47;;
7330;SDS011;3706;49.198;7.064;2023-05-15T07:19:16;4.25;;;3.85;;
7330;SDS011;3706;49.198;7.064;2023-05-15T07:21:44;5.63;;;3.80;;
7330;SDS011;3706;49.198;7.064;2023-05-15T07:24:13;4.30;;;3.67;;
7330;SDS011;3706;49.198;7.064;2023-05-15T07:26:40;3.67;;;3.38;;
7330;SDS011;3706;49.198;7.064;2023-05-15T07:29:07;4.07;;;3.70;;
7330;SDS011;3706;49.198;7.064;2023-05-15T07:31:34;5.18;;;3.50;;
7330;SDS011;3706;49.198;7.064;2023-05-15T07:34:02;5.15;;;3.72;;
7330;SDS011;3706;49.198;7.064;2023-05-15T07:36:29;5.15;;;3.40;;
7330;SDS011;3706;49.198;7.064;2023-05-15T07:38:57;3.50;;;3.20;;
7330;SDS011;3706;49.198;7.064;2023-05-15T07:41:25;3.85;;;3.03;;
7330;SDS011;3706;49.198;7.064;2023-05-15T07:44:00;7.25;;;3.60;;
7330;SDS011;3706;49.198;7.064;2023-05-15T07:46:27;3.10;;;2.83;;
7330;SDS011;3706;49.198;7.064;2023-05-15T07:48:54;6.57;;;3.35;;
7330;SDS011;3706;49.198;7.064;2023-05-15T07:51:21;3.57;;;3.27;;
7330;SDS011;3706;49.198;7.064;2023-05-15T07:53:48;3.93;;;3.00;;
7330;SDS011;3706;49.198;7.064;2023-05-15T07:56:15;3.70;;;3.40;;
7330;SDS011;3706;49.198;7.064;2023-05-15T07:58:43;3.00;;;2.70;;
7330;SDS011;3706;49.198;7.064;2023-05-15T08:01:10;3.73;;;3.00;;
7330;SDS011;3706;49.198;7.064;2023-05-15T08:03:37;3.43;;;2.97;;
7330;SDS011;3706;49.198;7.064;2023-05-15T08:06:04;3.23;;;2.93;;
7330;SDS011;3706;49.198;7.064;2023-05-15T08:08:32;4.53;;;3.00;;
7330;SDS011;3706;49.198;7.064;2023-05-15T08:10:59;3.40;;;3.10;;
7330;SDS011;3706;49.198;7.064;2023-05-15T08:16:33;2.47;;;2.28;;
7330;SDS011;3706;49.198;7.064;2023-05-15T08:19:00;2.88;;;2.40;;
7330;SDS011;3706;49.198;7.064;2023-05-15T08:21:29;3.00;;;1.98;;
7330;SDS011;3706;49.198;7.064;2023-05-15T08:23:58;3.97;;;3.08;;
7330;SDS011;3706;49.198;7.064;2023-05-15T08:26:25;3.45;;;2.80;;
7330;SDS011;3706;49.198;7.064;2023-05-15T08:28:52;3.15;;;2.85;;
7330;SDS011;3706;49.198;7.064;2023-05-15T08:31:21;3.85;;;3.00;;
7330;SDS011;3706;49.198;7.064;2023-05-15T08:33:48;4.38;;;3.03;;
7330;SDS011;3706;49.198;7.064;2023-05-15T08:36:15;3.00;;;2.70;;
7330;SDS011;3706;49.198;7.064;2023-05-15T08:38:43;3.83;;;2.72;;
7330;SDS011;3706;49.198;7.064;2023-05-15T08:41:11;2.83;;;2.53;;
7330;SDS011;3706;49.198;7.064;2023-05-15T08:43:44;2.92;;;2.72;;
7330;SDS011;3706;49.198;7.064;2023-05-15T08:46:11;3.42;;;3.13;;
7330;SDS011;3706;49.198;7.064;2023-05-15T08:48:40;2.78;;;2.58;;
7330;SDS011;3706;49.198;7.064;2023-05-15T08:51:08;2.65;;;2.45;;
7330;SDS011;3706;49.198;7.064;2023-05-15T08:53:35;7.30;;;2.90;;
7330;SDS011;3706;49.198;7.064;2023-05-15T08:56:03;3.47;;;3.17;;
7330;SDS011;3706;49.198;7.064;2023-05-15T08:58:31;3.65;;;3.20;;
7330;SDS011;3706;49.198;7.064;2023-05-15T09:00:58;5.25;;;3.00;;
7330;SDS011;3706;49.198;7.064;2023-05-15T09:03:26;3.13;;;2.83;;
7330;SDS011;3706;49.198;7.064;2023-05-15T09:05:54;5.00;;;3.20;;
7330;SDS011;3706;49.198;7.064;2023-05-15T09:08:22;3.17;;;2.92;;
7330;SDS011;3706;49.198;7.064;2023-05-15T09:10:51;4.90;;;3.25;;
7330;SDS011;3706;49.198;7.064;2023-05-15T09:13:19;4.70;;;3.58;;
7330;SDS011;3706;49.198;7.064;2023-05-15T09:15:46;3.83;;;3.53;;
7330;SDS011;3706;49.198;7.064;2023-05-15T09:18:14;4.32;;;3.28;;
7330;SDS011;3706;49.198;7.064;2023-05-15T09:20:41;4.78;;;3.47;;
7330;SDS011;3706;49.198;7.064;2023-05-15T09:23:22;4.38;;;3.25;;
7330;SDS011;3706;49.198;7.064;2023-05-15T09:25:50;4.03;;;3.50;;
7330;SDS011;3706;49.198;7.064;2023-05-15T09:28:29;3.60;;;3.30;;
7330;SDS011;3706;49.198;7.064;2023-05-15T09:30:58;4.68;;;3.33;;
7330;SDS011;3706;49.198;7.064;2023-05-15T09:33:27;3.83;;;3.17;;
7330;SDS011;3706;49.198;7.064;2023-05-15T09:35:55;4.88;;;3.40;;
7330;SDS011;3706;49.198;7.064;2023-05-15T09:38:23;3.67;;;3.38;;
7330;SDS011;3706;49.198;7.064;2023-05-15T09:40:51;4.07;;;3.53;;
7330;SDS011;3706;49.198;7.064;2023-05-15T09:43:27;4.00;;;3.60;;
7330;SDS011;3706;49.198;7.064;2023-05-15T09:45:54;3.13;;;2.83;;
7330;SDS011;3706;49.198;7.064;2023-05-15T09:48:21;3.55;;;3.20;;
7330;SDS011;3706;49.198;7.064;2023-05-15T09:50:48;3.95;;;3.38;;
7330;SDS011;3706;49.198;7.064;2023-05-15T09:53:16;3.60;;;3.30;;
7330;SDS011;3706;49.198;7.064;2023-05-15T09:55:44;7.45;;;3.38;;
7330;SDS011;3706;49.198;7.064;2023-05-15T09:58:14;3.63;;;3.33;;
7330;SDS011;3706;49.198;7.064;2023-05-15T10:00:42;3.47;;;3.05;;
7330;SDS011;3706;49.198;7.064;2023-05-15T10:03:10;5.28;;;3.25;;
7330;SDS011;3706;49.198;7.064;2023-05-15T10:05:38;3.17;;;2.88;;
7330;SDS011;3706;49.198;7.064;2023-05-15T10:08:05;3.38;;;2.78;;
7330;SDS011;3706;49.198;7.064;2023-05-15T10:10:32;3.67;;;3.23;;
7330;SDS011;3706;49.198;7.064;2023-05-15T10:13:01;4.10;;;2.87;;
7330;SDS011;3706;49.198;7.064;2023-05-15T10:15:31;7.03;;;4.23;;
7330;SDS011;3706;49.198;7.064;2023-05-15T10:17:59;8.40;;;5.30;;
7330;SDS011;3706;49.198;7.064;2023-05-15T10:20:29;6.77;;;4.77;;
7330;SDS011;3706;49.198;7.064;2023-05-15T10:22:56;7.10;;;5.77;;
7330;SDS011;3706;49.198;7.064;2023-05-15T10:25:25;8.90;;;6.03;;
7330;SDS011;3706;49.198;7.064;2023-05-15T10:27:56;7.00;;;5.87;;
7330;SDS011;3706;49.198;7.064;2023-05-15T10:30:25;6.97;;;5.57;;
7330;SDS011;3706;49.198;7.064;2023-05-15T10:32:53;6.43;;;4.70;;
7330;SDS011;3706;49.198;7.064;2023-05-15T10:35:21;3.47;;;3.17;;
7330;SDS011;3706;49.198;7.064;2023-05-15T10:37:48;5.23;;;3.47;;
7330;SDS011;3706;49.198;7.064;2023-05-15T10:40:16;4.00;;;3.17;;
7330;SDS011;3706;49.198;7.064;2023-05-15T10:42:43;3.33;;;2.77;;
7330;SDS011;3706;49.198;7.064;2023-05-15T10:45:11;4.27;;;3.10;;
7330;SDS011;3706;49.198;7.064;2023-05-15T10:47:40;4.73;;;3.07;;
7330;SDS011;3706;49.198;7.064;2023-05-15T10:50:10;4.90;;;3.57;;
7330;SDS011;3706;49.198;7.064;2023-05-15T10:52:38;4.63;;;3.77;;
7330;SDS011;3706;49.198;7.064;2023-05-15T10:55:07;5.23;;;3.53;;
7330;SDS011;3706;49.198;7.064;2023-05-15T10:57:38;4.37;;;3.67;;
7330;SDS011;3706;49.198;7.064;2023-05-15T11:00:22;6.07;;;3.97;;
7330;SDS011;3706;49.198;7.064;2023-05-15T11:02:52;4.20;;;3.80;;
7330;SDS011;3706;49.198;7.064;2023-05-15T11:05:21;5.60;;;3.60;;
7330;SDS011;3706;49.198;7.064;2023-05-15T11:10:52;3.80;;;3.50;;
7330;SDS011;3706;49.198;7.064;2023-05-15T11:13:21;7.37;;;3.47;;
7330;SDS011;3706;49.198;7.064;2023-05-15T11:15:48;4.37;;;3.60;;
7330;SDS011;3706;49.198;7.064;2023-05-15T11:18:16;4.37;;;3.20;;
7330;SDS011;3706;49.198;7.064;2023-05-15T11:23:37;5.90;;;3.87;;
7330;SDS011;3706;49.198;7.064;2023-05-15T11:26:05;4.37;;;3.30;;
7330;SDS011;3706;49.198;7.064;2023-05-15T11:28:39;6.90;;;4.10;;
7330;SDS011;3706;49.198;7.064;2023-05-15T11:31:07;5.63;;;3.67;;
7330;SDS011;3706;49.198;7.064;2023-05-15T11:33:36;6.20;;;3.80;;
7330;SDS011;3706;49.198;7.064;2023-05-15T11:36:04;4.17;;;3.77;;
7330;SDS011;3706;49.198;7.064;2023-05-15T11:38:35;5.77;;;3.67;;
7330;SDS011;3706;49.198;7.064;2023-05-15T11:41:15;4.63;;;3.70;;
7330;SDS011;3706;49.198;7.064;2023-05-15T11:43:43;4.37;;;3.60;;
7330;SDS011;3706;49.198;7.064;2023-05-15T11:46:11;4.77;;;3.70;;
7330;SDS011;3706;49.198;7.064;2023-05-15T11:48:40;5.37;;;4.07;;
7330;SDS011;3706;49.198;7.064;2023-05-15T11:51:12;5.00;;;4.00;;
7330;SDS011;3706;49.198;7.064;2023-05-15T11:53:41;4.17;;;3.77;;
7330;SDS011;3706;49.198;7.064;2023-05-15T11:56:11;5.87;;;4.07;;
7330;SDS011;3706;49.198;7.064;2023-05-15T11:58:42;4.40;;;3.77;;
7330;SDS011;3706;49.198;7.064;2023-05-15T12:01:09;5.73;;;4.00;;
7330;SDS011;3706;49.198;7.064;2023-05-15T12:03:37;4.00;;;3.60;;
7330;SDS011;3706;49.198;7.064;2023-05-15T12:06:06;4.77;;;4.00;;
7330;SDS011;3706;49.198;7.064;2023-05-15T12:08:37;4.20;;;3.80;;
7330;SDS011;3706;49.198;7.064;2023-05-15T12:11:04;4.30;;;3.90;;
7330;SDS011;3706;49.198;7.064;2023-05-15T12:13:31;6.33;;;4.10;;
7330;SDS011;3706;49.198;7.064;2023-05-15T12:15:59;4.00;;;3.30;;
7330;SDS011;3706;49.198;7.064;2023-05-15T12:18:27;5.37;;;3.50;;
7330;SDS011;3706;49.198;7.064;2023-05-15T12:20:56;3.70;;;3.40;;
7330;SDS011;3706;49.198;7.064;2023-05-15T12:23:25;4.17;;;3.33;;
7330;SDS011;3706;49.198;7.064;2023-05-15T12:25:54;5.10;;;3.30;;
7330;SDS011;3706;49.198;7.064;2023-05-15T12:28:23;5.50;;;3.50;;
7330;SDS011;3706;49.198;7.064;2023-05-15T12:30:51;4.77;;;3.37;;
7330;SDS011;3706;49.198;7.064;2023-05-15T12:33:19;4.77;;;3.50;;
7330;SDS011;3706;49.198;7.064;2023-05-15T12:35:49;8.00;;;3.83;;
7330;SDS011;3706;49.198;7.064;2023-05-15T12:38:20;4.13;;;3.70;;
7330;SDS011;3706;49.198;7.064;2023-05-15T12:40:51;5.47;;;3.90;;
7330;SDS011;3706;49.198;7.064;2023-05-15T12:43:19;3.77;;;3.47;;
7330;SDS011;3706;49.198;7.064;2023-05-15T12:45:53;5.60;;;3.33;;
7330;SDS011;3706;49.198;7.064;2023-05-15T12:48:21;4.63;;;3.50;;
7330;SDS011;3706;49.198;7.064;2023-05-15T12:50:48;6.93;;;3.20;;
7330;SDS011;3706;49.198;7.064;2023-05-15T12:53:15;5.20;;;3.77;;
7330;SDS011;3706;49.198;7.064;2023-05-15T12:55:43;3.40;;;2.80;;
7330;SDS011;3706;49.198;7.064;2023-05-15T12:58:13;5.97;;;3.43;;
7330;SDS011;3706;49.198;7.064;2023-05-15T13:00:43;4.20;;;3.17;;
7330;SDS011;3706;49.198;7.064;2023-05-15T13:03:12;3.20;;;2.90;;
7330;SDS011;3706;49.198;7.064;2023-05-15T13:05:41;4.03;;;3.50;;
7330;SDS011;3706;49.198;7.064;2023-05-15T13:08:12;3.67;;;3.10;;
7330;SDS011;3706;49.198;7.064;2023-05-15T13:10:40;5.60;;;2.93;;
7330;SDS011;3706;49.198;7.064;2023-05-15T13:13:07;3.90;;;3.07;;
7330;SDS011;3706;49.198;7.064;2023-05-15T13:15:37;7.17;;;3.87;;
7330;SDS011;3706;49.198;7.064;2023-05-15T13:18:05;5.00;;;3.40;;
7330;SDS011;3706;49.198;7.064;2023-05-15T13:20:34;3.47;;;2.97;;
7330;SDS011;3706;49.198;7.064;2023-05-15T13:23:02;4.80;;;2.97;;
7330;SDS011;3706;49.198;7.064;2023-05-15T13:25:30;3.93;;;2.90;;
7330;SDS011;3706;49.198;7.064;2023-05-15T13:27:57;3.77;;;3.10;;
7330;SDS011;3706;49.198;7.064;2023-05-15T13:30:25;4.23;;;3.70;;
7330;SDS011;3706;49.198;7.064;2023-05-15T13:32:54;6.60;;;4.10;;
7330;SDS011;3706;49.198;7.064;2023-05-15T13:35:21;4.60;;;4.00;;
7330;SDS011;3706;49.198;7.064;2023-05-15T13:37:48;5.83;;;3.93;;
7330;SDS011;3706;49.198;7.064;2023-05-15T13:40:16;4.30;;;3.90;;
7330;SDS011;3706;49.198;7.064;2023-05-15T13:42:43;5.97;;;4.73;;
7330;SDS011;3706;49.198;7.064;2023-05-15T13:45:11;5.57;;;4.00;;
7330;SDS011;3706;49.198;7.064;2023-05-15T13:47:39;4.47;;;4.03;;
7330;SDS011;3706;49.198;7.064;2023-05-15T13:50:09;5.87;;;4.60;;
7330;SDS011;3706;49.198;7.064;2023-05-15T13:52:37;6.33;;;4.77;;
7330;SDS011;3706;49.198;7.064;2023-05-15T13:55:05;7.07;;;4.80;;
7330;SDS011;3706;49.198;7.064;2023-05-15T13:57:34;5.37;;;4.70;;
7330;SDS011;3706;49.198;7.064;2023-05-15T14:00:02;5.40;;;4.73;;
7330;SDS011;3706;49.198;7.064;2023-05-15T14:02:31;6.17;;;5.57;;
7330;SDS011;3706;49.198;7.064;2023-05-15T14:04:58;7.57;;;5.37;;
7330;SDS011;3706;49.198;7.064;2023-05-15T14:07:27;6.13;;;5.50;;
7330;SDS011;3706;49.198;7.064;2023-05-15T14:09:54;6.53;;;5.63;;
7330;SDS011;3706;49.198;7.064;2023-05-15T14:12:21;7.70;;;5.87;;
7330;SDS011;3706;49.198;7.064;2023-05-15T14:14:48;6.47;;;5.70;;
7330;SDS011;3706;49.198;7.064;2023-05-15T14:17:15;5.83;;;5.13;;
7330;SDS011;3706;49.198;7.064;2023-05-15T14:19:42;6.97;;;5.60;;
7330;SDS011;3706;49.198;7.064;2023-05-15T14:22:09;7.57;;;6.27;;
7330;SDS011;3706;49.198;7.064;2023-05-15T14:24:38;6.83;;;5.70;;
7330;SDS011;3706;49.198;7.064;2023-05-15T14:27:05;7.07;;;5.63;;
7330;SDS011;3706;49.198;7.064;2023-05-15T14:29:32;6.33;;;5.70;;
7330;SDS011;3706;49.198;7.064;2023-05-15T14:31:59;6.10;;;5.50;;
7330;SDS011;3706;49.198;7.064;2023-05-15T14:34:26;5.97;;;4.97;;
7330;SDS011;3706;49.198;7.064;2023-05-15T14:36:54;7.50;;;5.70;;
7330;SDS011;3706;49.198;7.064;2023-05-15T14:39:21;6.13;;;5.40;;
7330;SDS011;3706;49.198;7.064;2023-05-15T14:41:49;8.80;;;6.00;;
7330;SDS011;3706;49.198;7.064;2023-05-15T14:44:17;9.00;;;6.40;;
7330;SDS011;3706;49.198;7.064;2023-05-15T14:46:44;9.00;;;6.90;;
7330;SDS011;3706;49.198;7.064;2023-05-15T14:49:11;7.37;;;6.10;;
7330;SDS011;3706;49.198;7.064;2023-05-15T14:51:38;6.47;;;5.87;;
7330;SDS011;3706;49.198;7.064;2023-05-15T14:54:05;6.20;;;5.30;;
7330;SDS011;3706;49.198;7.064;2023-05-15T14:56:32;5.30;;;4.80;;
7330;SDS011;3706;49.198;7.064;2023-05-15T14:59:00;5.33;;;4.77;;
7330;SDS011;3706;49.198;7.064;2023-05-15T15:01:27;4.57;;;4.17;;
7330;SDS011;3706;49.198;7.064;2023-05-15T15:03:55;5.30;;;4.80;;
7330;SDS011;3706;49.198;7.064;2023-05-15T15:06:22;6.43;;;4.87;;
7330;SDS011;3706;49.198;7.064;2023-05-15T15:08:49;5.20;;;4.70;;
7330;SDS011;3706;49.198;7.064;2023-05-15T15:11:16;5.97;;;4.83;;
7330;SDS011;3706;49.198;7.064;2023-05-15T15:13:43;4.83;;;4.20;;
7330;SDS011;3706;49.198;7.064;2023-05-15T15:16:12;5.70;;;4.10;;
7330;SDS011;3706;49.198;7.064;2023-05-15T15:18:39;4.97;;;4.40;;
7330;SDS011;3706;49.198;7.064;2023-05-15T15:21:06;4.10;;;3.80;;
7330;SDS011;3706;49.198;7.064;2023-05-15T15:23:33;4.70;;;4.20;;
7330;SDS011;3706;49.198;7.064;2023-05-15T15:26:00;6.33;;;3.90;;
7330;SDS011;3706;49.198;7.064;2023-05-15T15:28:27;4.97;;;4.47;;
7330;SDS011;3706;49.198;7.064;2023-05-15T15:30:57;5.70;;;4.13;;
7330;SDS011;3706;49.198;7.064;2023-05-15T15:33:28;4.23;;;3.83;;